createdAt,value
2018-12-09T00:01:05.466Z,8.10
2018-12-09T00:03:32.927Z,8.20
2018-12-09T00:06:00.372Z,8.30
2018-12-09T00:08:27.812Z,8.30
2018-12-09T00:10:55.286Z,8.40
2018-12-09T00:13:23.240Z,8.60
2018-12-09T00:15:50.665Z,8.60
2018-12-09T00:18:18.108Z,8.80
2018-12-09T00:20:45.520Z,8.90
2018-12-09T00:23:12.949Z,8.90
2018-12-09T00:25:40.396Z,9.10
2018-12-09T00:28:07.862Z,9.20
2018-12-09T00:30:35.348Z,9.30
2018-12-09T00:33:02.784Z,9.60
2018-12-09T00:35:30.204Z,9.70
2018-12-09T00:37:57.646Z,9.70
2018-12-09T00:40:25.103Z,9.80
2018-12-09T00:42:52.521Z,9.70
2018-12-09T00:45:19.990Z,9.70
2018-12-09T00:47:46.988Z,9.90
2018-12-09T00:50:14.059Z,10.10
2018-12-09T00:52:41.141Z,10.10
2018-12-09T00:55:08.141Z,10.10
2018-12-09T00:57:35.167Z,10.00
2018-12-09T01:00:02.644Z,9.90
2018-12-09T01:02:29.648Z,9.80
2018-12-09T01:04:56.643Z,9.80
2018-12-09T01:07:23.655Z,9.90
2018-12-09T01:09:50.648Z,10.00
2018-12-09T01:12:17.629Z,9.90
2018-12-09T01:14:44.629Z,10.00
2018-12-09T01:17:11.623Z,10.00
2018-12-09T01:19:38.629Z,10.00
2018-12-09T01:22:05.627Z,9.90
2018-12-09T01:24:32.665Z,10.00
2018-12-09T01:26:59.660Z,10.10
2018-12-09T01:29:26.743Z,10.10
2018-12-09T01:31:53.847Z,10.00
2018-12-09T01:34:20.925Z,9.90
2018-12-09T01:36:47.994Z,9.90
2018-12-09T01:39:14.984Z,9.90
2018-12-09T01:41:41.989Z,9.90
2018-12-09T01:44:08.993Z,10.00
2018-12-09T01:46:36.007Z,9.90
2018-12-09T01:49:03.306Z,10.00
2018-12-09T01:51:30.278Z,10.10
2018-12-09T01:54:03.322Z,10.10
2018-12-09T01:58:57.482Z,10.00
2018-12-09T02:01:24.466Z,9.90
2018-12-09T02:03:51.439Z,10.00
2018-12-09T02:06:18.506Z,10.00
2018-12-09T02:08:45.898Z,10.00
2018-12-09T02:11:12.982Z,10.00
2018-12-09T02:13:40.063Z,9.90
2018-12-09T02:16:07.140Z,9.70
2018-12-09T02:18:34.137Z,9.60
2018-12-09T02:21:01.458Z,9.50
2018-12-09T02:23:28.536Z,9.30
2018-12-09T02:25:55.605Z,9.10
2018-12-09T02:28:22.575Z,8.90
2018-12-09T02:30:49.579Z,8.60
2018-12-09T02:33:16.665Z,8.40
2018-12-09T02:35:45.244Z,8.10
2018-12-09T02:38:12.241Z,7.90
2018-12-09T02:40:39.233Z,7.70
2018-12-09T02:43:06.358Z,7.70
2018-12-09T02:45:33.448Z,7.80
2018-12-09T02:48:00.525Z,7.80
2018-12-09T02:50:27.505Z,7.90
2018-12-09T02:52:54.500Z,7.90
2018-12-09T02:55:21.587Z,8.00
2018-12-09T02:57:48.662Z,8.00
2018-12-09T03:00:15.742Z,8.30
2018-12-09T03:02:42.773Z,8.30
2018-12-09T03:05:09.781Z,8.20
2018-12-09T03:07:36.781Z,7.90
2018-12-09T03:10:04.495Z,7.70
2018-12-09T03:12:32.307Z,7.50
2018-12-09T03:15:00.100Z,7.50
2018-12-09T03:17:27.605Z,7.40
2018-12-09T03:19:55.454Z,7.40
2018-12-09T03:22:22.884Z,7.50
2018-12-09T03:24:50.392Z,7.50
2018-12-09T03:27:17.909Z,7.60
2018-12-09T03:29:45.840Z,7.70
2018-12-09T03:32:12.885Z,7.70
2018-12-09T03:34:39.961Z,7.90
2018-12-09T03:37:07.032Z,8.00
2018-12-09T03:39:34.092Z,8.00
2018-12-09T03:42:01.077Z,8.10
2018-12-09T03:44:28.072Z,8.10
2018-12-09T03:46:55.055Z,8.10
2018-12-09T03:49:22.037Z,8.10
2018-12-09T03:51:49.099Z,8.20
2018-12-09T03:54:16.165Z,8.30
2018-12-09T03:56:43.127Z,8.30
2018-12-09T03:59:10.197Z,8.30
2018-12-09T04:01:37.231Z,8.30
2018-12-09T04:04:04.325Z,8.30
2018-12-09T04:06:31.399Z,8.40
2018-12-09T04:08:58.476Z,8.40
2018-12-09T04:11:25.846Z,8.50
2018-12-09T04:13:53.310Z,8.50
2018-12-09T04:16:20.779Z,8.50
2018-12-09T04:18:48.225Z,8.50
2018-12-09T04:21:15.816Z,8.40
2018-12-09T04:23:43.630Z,8.40
2018-12-09T04:26:10.707Z,8.30
2018-12-09T04:28:37.709Z,8.20
2018-12-09T04:31:04.712Z,8.20
2018-12-09T04:33:31.806Z,8.30
2018-12-09T04:35:59.283Z,8.30
2018-12-09T04:38:26.326Z,8.20
2018-12-09T04:40:53.773Z,8.30
2018-12-09T04:43:21.328Z,8.40
2018-12-09T04:45:48.733Z,8.40
2018-12-09T04:48:16.246Z,8.30
2018-12-09T04:50:43.770Z,8.30
2018-12-09T04:53:11.304Z,8.40
2018-12-09T04:55:38.752Z,8.40
2018-12-09T04:58:06.182Z,8.40
2018-12-09T05:00:45.624Z,8.40
2018-12-09T05:03:13.234Z,8.40
2018-12-09T05:05:40.791Z,8.40
2018-12-09T05:08:08.294Z,8.30
2018-12-09T05:10:35.726Z,8.00
2018-12-09T05:13:03.123Z,7.80
2018-12-09T05:15:30.652Z,7.70
2018-12-09T05:17:58.140Z,7.50
2018-12-09T05:20:25.593Z,7.40
2018-12-09T05:22:53.004Z,7.50
2018-12-09T05:25:20.458Z,7.40
2018-12-09T05:27:47.974Z,7.40
2018-12-09T05:30:15.482Z,7.60
2018-12-09T05:32:42.997Z,7.80
2018-12-09T05:35:10.528Z,7.90
2018-12-09T05:37:38.045Z,7.90
2018-12-09T05:40:05.503Z,8.00
2018-12-09T05:42:32.999Z,8.00
2018-12-09T05:45:00.496Z,8.10
2018-12-09T05:47:27.960Z,8.00
2018-12-09T05:49:55.728Z,8.00
2018-12-09T05:52:23.251Z,8.00
2018-12-09T05:54:50.669Z,8.10
2018-12-09T05:57:18.213Z,8.10
2018-12-09T05:59:45.737Z,8.20
2018-12-09T06:02:25.816Z,8.30
2018-12-09T06:04:53.350Z,8.20
2018-12-09T06:07:20.883Z,8.20
2018-12-09T06:09:48.416Z,8.20
2018-12-09T06:12:16.130Z,8.20
2018-12-09T06:14:43.646Z,8.20
2018-12-09T06:17:11.167Z,8.10
2018-12-09T06:19:38.286Z,8.10
2018-12-09T06:22:05.293Z,8.10
2018-12-09T06:24:32.346Z,8.00
2018-12-09T06:26:59.400Z,7.90
2018-12-09T06:29:26.385Z,7.80
2018-12-09T06:31:53.439Z,7.80
2018-12-09T06:34:20.509Z,7.80
2018-12-09T06:36:47.512Z,7.90
2018-12-09T06:39:14.882Z,7.90
2018-12-09T06:41:41.973Z,7.90
2018-12-09T06:44:09.045Z,8.10
2018-12-09T06:46:36.143Z,8.10
2018-12-09T06:49:03.129Z,8.10
2018-12-09T06:51:30.534Z,8.10
2018-12-09T06:53:57.528Z,8.10
2018-12-09T06:56:24.620Z,8.10
2018-12-09T06:58:51.685Z,8.10
2018-12-09T07:01:18.679Z,8.00
2018-12-09T07:03:45.750Z,8.00
2018-12-09T07:06:13.600Z,8.00
2018-12-09T07:08:41.066Z,8.00
2018-12-09T07:11:08.143Z,8.00
2018-12-09T07:13:35.108Z,8.00
2018-12-09T07:16:02.174Z,7.90
2018-12-09T07:18:29.157Z,7.80
2018-12-09T07:20:56.128Z,7.80
2018-12-09T07:23:23.197Z,7.80
2018-12-09T07:25:50.175Z,7.90
2018-12-09T07:28:17.232Z,7.90
2018-12-09T07:30:44.226Z,7.90
2018-12-09T07:33:11.694Z,7.90
2018-12-09T07:35:38.676Z,7.80
2018-12-09T07:38:05.726Z,7.70
2018-12-09T07:40:32.815Z,7.70
2018-12-09T07:42:59.880Z,7.70
2018-12-09T07:45:26.939Z,7.70
2018-12-09T07:47:54.009Z,7.80
2018-12-09T07:50:21.072Z,7.70
2018-12-09T07:52:48.145Z,7.80
2018-12-09T07:55:15.121Z,7.80
2018-12-09T07:57:42.106Z,7.70
2018-12-09T08:00:09.120Z,7.80
2018-12-09T08:02:36.109Z,7.90
2018-12-09T08:05:03.314Z,7.90
2018-12-09T08:07:30.311Z,8.00
2018-12-09T08:09:57.283Z,7.90
2018-12-09T08:12:24.277Z,7.90
2018-12-09T08:17:18.231Z,7.90
2018-12-09T08:19:45.230Z,7.70
2018-12-09T08:22:12.189Z,7.70
2018-12-09T08:27:06.233Z,7.90
2018-12-09T08:29:33.228Z,8.00
2018-12-09T08:32:00.217Z,8.00
2018-12-09T08:34:27.280Z,7.90
2018-12-09T08:36:54.270Z,8.00
2018-12-09T08:39:21.250Z,7.90
2018-12-09T08:41:48.251Z,7.90
2018-12-09T08:44:15.245Z,7.90
2018-12-09T08:46:42.325Z,7.90
2018-12-09T08:49:09.295Z,8.00
2018-12-09T08:51:36.277Z,8.00
2018-12-09T08:54:03.287Z,8.00
2018-12-09T08:56:30.354Z,8.00
2018-12-09T08:58:57.334Z,8.00
2018-12-09T09:01:24.324Z,8.10
2018-12-09T09:03:51.316Z,8.10
2018-12-09T09:06:18.322Z,8.20
2018-12-09T09:08:45.396Z,8.20
2018-12-09T09:11:12.414Z,8.10
2018-12-09T09:13:39.415Z,8.10
2018-12-09T09:16:06.397Z,8.20
2018-12-09T09:18:33.385Z,8.20
2018-12-09T09:21:00.382Z,8.20
2018-12-09T09:25:54.333Z,8.20
2018-12-09T09:28:21.318Z,8.10
2018-12-09T09:30:48.305Z,8.00
2018-12-09T09:33:15.305Z,8.00
2018-12-09T09:35:42.275Z,8.00
2018-12-09T09:40:36.269Z,8.10
2018-12-09T09:43:03.276Z,8.00
2018-12-09T09:45:30.239Z,8.00
2018-12-09T09:47:57.234Z,8.00
2018-12-09T09:50:24.234Z,8.00
2018-12-09T09:52:51.224Z,8.00
2018-12-09T09:55:18.253Z,7.90
2018-12-09T10:00:12.558Z,7.60
2018-12-09T10:02:39.642Z,7.50
2018-12-09T10:05:07.171Z,7.40
2018-12-09T10:07:34.598Z,7.50
2018-12-09T10:10:02.042Z,7.50
2018-12-09T10:12:29.463Z,7.60
2018-12-09T10:14:56.885Z,7.60
2018-12-09T10:17:24.556Z,7.60
2018-12-09T10:19:51.979Z,7.70
2018-12-09T10:22:19.403Z,7.70
2018-12-09T10:24:47.100Z,7.60
2018-12-09T10:27:14.548Z,7.60
2018-12-09T10:29:42.093Z,7.50
2018-12-09T10:32:09.510Z,7.50
2018-12-09T10:34:38.866Z,7.40
2018-12-09T10:37:06.465Z,7.30
2018-12-09T10:39:33.968Z,7.10
2018-12-09T10:42:01.418Z,7.00
2018-12-09T10:44:28.854Z,7.00
2018-12-09T10:46:56.289Z,7.00
2018-12-09T10:49:23.732Z,7.00
2018-12-09T10:51:51.238Z,7.10
2018-12-09T10:54:18.688Z,7.20
2018-12-09T10:56:46.239Z,7.20
2018-12-09T10:59:13.670Z,7.20
2018-12-09T11:01:43.030Z,7.20
2018-12-09T11:04:10.490Z,7.20
2018-12-09T11:06:37.934Z,7.20
2018-12-09T11:09:05.923Z,7.20
2018-12-09T11:11:33.325Z,7.20
2018-12-09T11:14:00.771Z,7.20
2018-12-09T11:16:28.258Z,7.20
2018-12-09T11:18:55.695Z,7.20
2018-12-09T11:21:30.377Z,7.20
2018-12-09T11:23:52.547Z,7.20
2018-12-09T11:26:19.963Z,7.10
2018-12-09T11:28:47.422Z,7.20
2018-12-09T11:31:14.836Z,7.20
2018-12-09T11:33:42.390Z,7.20
2018-12-09T11:36:09.877Z,7.10
2018-12-09T11:38:37.346Z,7.20
2018-12-09T11:41:04.802Z,7.10
2018-12-09T11:43:32.274Z,7.10
2018-12-09T11:45:59.680Z,7.10
2018-12-09T11:48:27.109Z,7.20
2018-12-09T11:50:54.540Z,7.20
2018-12-09T11:53:21.970Z,7.20
2018-12-09T11:55:49.450Z,7.30
2018-12-09T11:58:16.890Z,7.30
2018-12-09T12:00:44.347Z,7.30
2018-12-09T12:03:11.913Z,7.40
2018-12-09T12:05:39.428Z,7.50
2018-12-09T12:08:06.844Z,7.50
2018-12-09T12:10:34.354Z,7.70
2018-12-09T12:13:01.811Z,7.80
2018-12-09T12:15:29.258Z,8.00
2018-12-09T12:17:56.246Z,8.10
2018-12-09T12:20:23.235Z,8.10
2018-12-09T12:22:50.222Z,8.20
2018-12-09T12:25:17.322Z,8.20
2018-12-09T12:27:44.313Z,8.20
2018-12-09T12:30:11.400Z,8.30
2018-12-09T12:32:38.447Z,8.30
2018-12-09T12:35:05.460Z,8.30
2018-12-09T12:37:32.567Z,8.30
2018-12-09T12:39:59.544Z,8.30
2018-12-09T12:42:26.546Z,8.20
2018-12-09T12:44:53.580Z,8.20
2018-12-09T12:47:20.564Z,8.20
2018-12-09T12:49:47.553Z,8.20
2018-12-09T12:52:14.549Z,8.20
2018-12-09T12:54:41.533Z,8.20
2018-12-09T12:57:08.538Z,8.20
2018-12-09T12:59:35.512Z,8.10
2018-12-09T13:02:02.484Z,8.10
2018-12-09T13:04:29.475Z,8.10
2018-12-09T13:06:56.455Z,8.00
2018-12-09T13:09:23.419Z,7.80
2018-12-09T13:11:50.396Z,7.60
2018-12-09T13:14:17.369Z,7.40
2018-12-09T13:16:44.427Z,7.20
2018-12-09T13:19:11.543Z,7.20
2018-12-09T13:21:38.605Z,7.20
2018-12-09T13:24:05.591Z,7.20
2018-12-09T13:26:32.555Z,7.20
2018-12-09T13:28:59.558Z,7.20
2018-12-09T13:31:26.523Z,7.20
2018-12-09T13:33:53.527Z,7.20
2018-12-09T13:36:20.496Z,7.20
2018-12-09T13:38:47.482Z,7.20
2018-12-09T13:41:14.538Z,7.20
2018-12-09T13:43:41.504Z,7.20
2018-12-09T13:46:08.475Z,7.00
2018-12-09T13:48:35.463Z,6.80
2018-12-09T13:51:02.447Z,6.70
2018-12-09T13:53:29.417Z,6.70
2018-12-09T13:55:56.406Z,6.70
2018-12-09T13:58:23.395Z,6.60
2018-12-09T14:00:50.372Z,6.60
2018-12-09T14:03:17.347Z,6.60
2018-12-09T14:05:44.340Z,6.50
2018-12-09T14:08:11.335Z,6.50
2018-12-09T14:10:38.311Z,6.40
2018-12-09T14:13:05.288Z,6.40
2018-12-09T14:15:32.365Z,6.30
2018-12-09T14:17:59.356Z,6.30
2018-12-09T14:20:26.358Z,6.30
2018-12-09T14:22:53.339Z,6.40
2018-12-09T14:25:20.337Z,6.50
2018-12-09T14:27:47.300Z,6.60
2018-12-09T14:30:14.405Z,6.70
2018-12-09T14:32:41.376Z,7.00
2018-12-09T14:35:08.360Z,7.20
2018-12-09T14:37:35.349Z,7.30
2018-12-09T14:40:02.335Z,7.40
2018-12-09T14:42:29.709Z,7.30
2018-12-09T14:44:56.701Z,7.20
2018-12-09T14:47:23.672Z,7.10
2018-12-09T14:49:50.669Z,7.00
2018-12-09T14:52:17.660Z,6.90
2018-12-09T14:54:44.642Z,6.80
2018-12-09T14:57:11.616Z,6.80
2018-12-09T14:59:38.650Z,6.80
2018-12-09T15:02:05.644Z,6.80
2018-12-09T15:04:33.170Z,6.80
2018-12-09T15:07:00.145Z,6.80
2018-12-09T15:09:27.131Z,6.80
2018-12-09T15:11:54.091Z,6.90
2018-12-09T15:14:21.086Z,6.90
2018-12-09T15:16:48.065Z,6.90
2018-12-09T15:19:15.070Z,6.90
2018-12-09T15:21:42.045Z,6.80
2018-12-09T15:24:09.061Z,6.80
2018-12-09T15:26:36.060Z,6.70
2018-12-09T15:29:03.061Z,6.70
2018-12-09T15:31:30.044Z,6.70
2018-12-09T15:33:57.032Z,6.70
2018-12-09T15:36:23.997Z,6.70
2018-12-09T15:38:50.988Z,6.70
2018-12-09T15:41:17.948Z,6.70
2018-12-09T15:43:44.947Z,6.70
2018-12-09T15:46:11.948Z,6.70
2018-12-09T15:48:38.940Z,6.80
2018-12-09T15:51:06.179Z,6.80
2018-12-09T15:53:33.129Z,6.80
2018-12-09T15:56:00.114Z,6.80
2018-12-09T15:58:27.089Z,6.80
2018-12-09T16:00:55.434Z,6.70
2018-12-09T16:03:22.891Z,6.70
2018-12-09T16:05:49.937Z,6.70
2018-12-09T16:08:16.900Z,6.70
2018-12-09T16:10:43.875Z,6.70
2018-12-09T16:13:10.875Z,6.70
2018-12-09T16:15:37.857Z,6.70
2018-12-09T16:18:04.859Z,6.70
2018-12-09T16:20:31.841Z,6.60
2018-12-09T16:22:58.838Z,6.70
2018-12-09T16:25:25.825Z,6.60
2018-12-09T16:27:52.795Z,6.80
2018-12-09T16:30:19.795Z,6.80
2018-12-09T16:32:46.775Z,6.80
2018-12-09T16:35:13.743Z,6.90
2018-12-09T16:37:40.743Z,6.90
2018-12-09T16:40:07.742Z,6.90
2018-12-09T16:42:34.722Z,6.80
2018-12-09T16:45:01.726Z,6.90
2018-12-09T16:47:28.755Z,6.90
2018-12-09T16:49:55.811Z,6.90
2018-12-09T16:52:22.883Z,7.00
2018-12-09T16:54:49.900Z,7.10
2018-12-09T16:57:16.877Z,7.30
2018-12-09T16:59:43.843Z,7.20
2018-12-09T17:02:10.840Z,7.20
2018-12-09T17:04:37.818Z,7.10
2018-12-09T17:07:04.816Z,7.20
2018-12-09T17:09:31.853Z,7.20
2018-12-09T17:11:58.864Z,7.10
2018-12-09T17:14:25.856Z,7.10
2018-12-09T17:16:52.837Z,7.10
2018-12-09T17:19:19.826Z,7.10
2018-12-09T17:21:46.790Z,7.10
2018-12-09T17:24:13.774Z,7.00
2018-12-09T17:26:40.834Z,6.90
2018-12-09T17:29:07.807Z,6.90
2018-12-09T17:31:34.806Z,6.80
2018-12-09T17:34:02.005Z,6.70
2018-12-09T17:36:28.963Z,6.60
2018-12-09T17:38:55.938Z,6.50
2018-12-09T17:41:25.130Z,6.40
2018-12-09T17:43:51.907Z,6.40
2018-12-09T17:46:18.915Z,6.40
2018-12-09T17:48:45.935Z,6.40
2018-12-09T17:51:12.901Z,6.40
2018-12-09T17:53:39.883Z,6.40
2018-12-09T17:56:06.882Z,6.40
2018-12-09T17:58:33.847Z,6.50
2018-12-09T18:01:00.821Z,6.50
2018-12-09T18:03:27.784Z,6.50
2018-12-09T18:05:54.825Z,6.60
2018-12-09T18:08:21.806Z,6.60
2018-12-09T18:17:46.091Z,6.60
2018-12-09T18:20:13.078Z,6.60
2018-12-09T18:22:40.074Z,6.60
2018-12-09T18:25:07.081Z,6.60
2018-12-09T18:27:34.163Z,6.60
2018-12-09T18:30:01.140Z,6.70
2018-12-09T18:32:28.133Z,6.70
2018-12-09T18:34:55.119Z,6.70
2018-12-09T18:37:22.253Z,6.70
2018-12-09T18:39:49.247Z,6.70
2018-12-09T18:42:16.228Z,6.70
2018-12-09T18:44:43.223Z,6.70
2018-12-09T18:47:10.256Z,6.70
2018-12-09T18:49:37.307Z,6.70
2018-12-09T18:52:04.313Z,6.70
2018-12-09T18:54:31.338Z,6.60
2018-12-09T18:56:58.313Z,6.70
2018-12-09T18:59:25.301Z,6.70
2018-12-09T19:01:52.276Z,6.60
2018-12-09T19:04:19.334Z,6.60
2018-12-09T19:06:46.325Z,6.60
2018-12-09T19:09:13.330Z,6.60
2018-12-09T19:11:40.315Z,6.50
2018-12-09T19:14:07.325Z,6.40
2018-12-09T19:16:34.315Z,6.40
2018-12-09T19:19:01.292Z,6.40
2018-12-09T19:21:28.285Z,6.30
2018-12-09T19:23:55.263Z,6.30
2018-12-09T19:26:22.283Z,6.30
2018-12-09T19:28:49.263Z,6.30
2018-12-09T19:31:16.333Z,6.30
2018-12-09T19:33:43.307Z,6.30
2018-12-09T19:36:10.318Z,6.30
2018-12-09T19:38:40.300Z,6.20
2018-12-09T19:41:06.346Z,6.20
2018-12-09T19:43:33.357Z,6.20
2018-12-09T19:46:00.445Z,6.20
2018-12-09T19:48:27.433Z,6.20
2018-12-09T19:50:54.422Z,6.20
2018-12-09T19:53:21.411Z,6.20
2018-12-09T19:55:48.398Z,6.20
2018-12-09T19:58:15.386Z,6.30
2018-12-09T20:00:42.385Z,6.30
2018-12-09T20:03:09.398Z,6.40
2018-12-09T20:05:36.405Z,6.40
2018-12-09T20:08:03.421Z,6.50
2018-12-09T20:10:30.434Z,6.50
2018-12-09T20:12:57.529Z,6.40
2018-12-09T20:15:24.608Z,6.30
2018-12-09T20:17:51.609Z,6.30
2018-12-09T20:20:18.634Z,6.20
2018-12-09T20:22:45.765Z,6.20
2018-12-09T20:25:12.845Z,6.20
2018-12-09T20:27:39.837Z,6.20
2018-12-09T20:30:08.042Z,6.10
2018-12-09T20:32:35.519Z,6.20
2018-12-09T20:35:02.579Z,6.20
2018-12-09T20:37:29.591Z,6.20
2018-12-09T20:39:56.562Z,6.30
2018-12-09T20:42:23.644Z,6.30
2018-12-09T20:44:50.636Z,6.30
2018-12-09T20:47:17.623Z,6.30
2018-12-09T20:49:44.615Z,6.30
2018-12-09T20:52:11.604Z,6.30
2018-12-09T20:54:38.598Z,6.40
2018-12-09T20:57:05.595Z,6.40
2018-12-09T20:59:32.647Z,6.40
2018-12-09T21:01:59.641Z,6.50
2018-12-09T21:04:26.632Z,6.40
2018-12-09T21:06:53.646Z,6.50
2018-12-09T21:09:20.651Z,6.50
2018-12-09T21:11:47.661Z,6.40
2018-12-09T21:14:14.656Z,6.40
2018-12-09T21:16:41.663Z,6.50
2018-12-09T21:19:08.662Z,6.40
2018-12-09T21:21:35.654Z,6.40
2018-12-09T21:24:02.660Z,6.30
2018-12-09T21:26:29.666Z,6.30
2018-12-09T21:28:56.660Z,6.40
2018-12-09T21:31:23.815Z,6.50
2018-12-09T21:33:50.835Z,6.40
2018-12-09T21:36:17.813Z,6.40
2018-12-09T21:38:44.819Z,6.30
2018-12-09T21:41:11.810Z,6.20
2018-12-09T21:43:38.802Z,6.00
2018-12-09T21:46:05.883Z,6.00
2018-12-09T21:48:32.945Z,5.90
2018-12-09T21:50:59.936Z,5.90
2018-12-09T21:53:26.920Z,5.90
2018-12-09T21:55:53.909Z,5.90
2018-12-09T21:58:20.997Z,5.90
2018-12-09T22:00:48.001Z,5.90
2018-12-09T22:03:15.023Z,5.90
2018-12-09T22:05:41.998Z,5.90
2018-12-09T22:08:08.997Z,6.00
2018-12-09T22:10:36.001Z,6.00
2018-12-09T22:13:03.009Z,6.00
2018-12-09T22:15:30.009Z,6.00
2018-12-09T22:17:57.001Z,6.10
2018-12-09T22:20:23.995Z,6.10
2018-12-09T22:22:51.002Z,6.00
2018-12-09T22:25:18.010Z,6.10
2018-12-09T22:27:45.021Z,6.10
2018-12-09T22:30:12.030Z,6.10
2018-12-09T22:32:39.035Z,6.10
2018-12-09T22:35:06.119Z,6.10
2018-12-09T22:37:33.133Z,6.00
2018-12-09T22:40:00.224Z,6.00
2018-12-09T22:42:27.394Z,6.00
2018-12-09T22:44:54.375Z,6.00
2018-12-09T22:47:21.375Z,6.00
2018-12-09T22:49:48.356Z,6.00
2018-12-09T22:52:15.432Z,6.10
2018-12-09T22:54:42.401Z,6.00
2018-12-09T22:57:09.412Z,6.00
2018-12-09T22:59:36.387Z,6.00
2018-12-09T23:02:08.974Z,6.10
2018-12-09T23:04:36.069Z,6.10
2018-12-09T23:07:08.765Z,6.10
2018-12-09T23:09:35.739Z,6.10
2018-12-09T23:12:02.758Z,6.10
2018-12-09T23:14:29.764Z,6.10
2018-12-09T23:16:56.735Z,6.10
2018-12-09T23:19:23.733Z,6.10
2018-12-09T23:21:50.737Z,6.10
2018-12-09T23:24:17.728Z,6.10
2018-12-09T23:26:44.732Z,6.10
2018-12-09T23:29:11.722Z,6.10
2018-12-09T23:31:38.707Z,6.00
2018-12-09T23:34:05.703Z,5.90
2018-12-09T23:36:32.751Z,5.90
2018-12-09T23:41:26.716Z,6.00
2018-12-09T23:43:53.704Z,6.10
2018-12-09T23:46:20.685Z,6.10
2018-12-09T23:48:47.693Z,6.00
2018-12-09T23:51:14.724Z,6.00
2018-12-09T23:53:41.708Z,6.00
2018-12-09T23:56:08.729Z,6.00
2018-12-09T23:58:35.701Z,6.00
